Time;durP1;ratioP1;P1;durP2;ratioP2;P2;SDS_P1;SDS_P2;PMS_P1;PMS_P2;Temp;Humidity;BMP_temperature;BMP_pressure;BME280_temperature;BME280_humidity;BME280_pressure;Samples;Min_cycle;Max_cycle;Signal;HPM_P1;HPM_P2
2023/05/05 14:21:13;;;;;;;;;;;;;;;22.23;47.56;98007.97;5183518;23;19942;-62
2023/05/05 14:23:39;;;;;;;;;;;;;;;22.18;47.92;98009.50;4838091;29;20011;-63
2023/05/05 14:26:04;;;;;;;;;;;;;;;22.13;47.82;98007.38;4840454;29;19924;-63
2023/05/05 14:28:29;;;;;;;;;;;;;;;22.15;48.35;98002.69;4840042;29;19956;-63
2023/05/05 14:30:55;;;;;;;;;;;;;;;22.15;48.46;98004.53;4841480;29;19963;-62
2023/05/05 14:33:21;;;;;;;;;;;;;;;22.08;48.87;98008.91;4837261;29;19960;-63
2023/05/05 14:35:46;;;;;;;;;;;;;;;22.15;46.66;98004.53;4832367;29;19952;-61
2023/05/05 14:38:11;;;;;;;;;;;;;;;22.08;46.63;97998.25;4840359;29;19951;-63
2023/05/05 14:40:36;;;;;;;;;;;;;;;22.02;46.63;98005.13;4840773;29;19924;-63
2023/05/05 14:43:01;;;;;;;;;;;;;;;22.02;45.41;98000.63;4835238;29;19924;-64
2023/05/05 14:45:28;;;;;;;;;;;;;;;21.90;45.74;98007.44;4838186;29;19946;-61
2023/05/05 14:47:53;;;;;;;;;;;;;;;21.86;44.74;97999.97;4839266;29;19932;-62
2023/05/05 14:50:18;;;;;;;;;;;;;;;21.80;45.49;98012.19;4840351;29;19921;-63
2023/05/05 14:52:44;;;;;;;;;;;;;;;21.83;45.67;98005.66;4830823;29;19950;-64
2023/05/05 14:55:09;;;;;;;;;;;;;;;21.82;45.73;98010.19;4829988;29;20021;-64
2023/05/05 14:57:34;;;;;;;;;;;;;;;21.77;45.30;98008.03;4840067;29;20377;-64
2023/05/05 14:59:59;;;;;;;;;;;;;;;21.78;45.73;98003.53;4839521;29;20298;-64
2023/05/05 15:02:25;;;;;;;;;;;;;;;21.84;45.50;98002.81;4826111;29;19929;-63
2023/05/05 15:04:51;;;;;;;;;;;;;;;21.89;45.12;98005.78;4828647;29;20049;-63
2023/05/05 15:07:17;;;;;;;;;;;;;;;21.83;45.21;98006.50;4828759;29;19928;-62
2023/05/05 15:09:42;;;;;;;;;;;;;;;21.92;45.70;98005.41;4843003;29;19920;-65
2023/05/05 15:12:07;;;;;;;;;;;;;;;21.99;46.91;98006.34;4842852;29;19927;-63
2023/05/05 15:14:32;;;;;;;;;;;;;;;22.04;46.49;98008.47;4829659;29;19920;-64
2023/05/05 15:16:57;;;;;;;;;;;;;;;21.86;47.85;98003.47;4841317;29;19928;-63
2023/05/05 15:19:23;;;;;;;;;;;;;;;21.76;46.87;97994.88;4844041;29;19928;-64
2023/05/05 15:21:52;;;;;;;;;;;;;;;21.65;47.08;97998.81;4841062;29;19973;-64
2023/05/05 15:24:17;;;;;;;;;;;;;;;21.60;47.54;98000.38;4822203;29;19921;-64
2023/05/05 15:26:42;;;;;;;;;;;;;;;21.50;47.09;97998.75;4838145;29;20003;-64
2023/05/05 15:29:07;;;;;;;;;;;;;;;21.43;46.64;97989.81;4839508;29;19920;-62
2023/05/05 15:31:33;;;;;;;;;;;;;;;21.31;47.85;97991.22;4845418;29;20037;-63
2023/05/05 15:33:58;;;;;;;;;;;;;;;21.26;49.74;97993.59;4842248;29;20019;-63
2023/05/05 15:36:23;;;;;;;;;;;;;;;21.21;50.75;97986.13;4843209;29;19999;-62
2023/05/05 15:38:48;;;;;;;;;;;;;;;21.18;52.98;97983.81;4834780;29;20015;-65
2023/05/05 15:41:14;;;;;;;;;;;;;;;21.09;53.27;97977.72;4835826;29;20011;-63
2023/05/05 15:43:39;;;;;;;;;;;;;;;20.99;54.21;97978.94;4840063;29;19925;-63
2023/05/05 15:46:04;;;;;;;;;;;;;;;20.95;53.51;97973.13;4850097;29;19923;-63
2023/05/05 15:48:30;;;;;;;;;;;;;;;20.90;55.45;97970.19;4824936;29;19932;-64
2023/05/05 15:50:55;;;;;;;;;;;;;;;20.85;54.30;97975.19;4833810;29;20413;-65
2023/05/05 15:53:20;;;;;;;;;;;;;;;20.78;53.80;97971.56;4842741;29;19928;-65
2023/05/05 15:55:45;;;;;;;;;;;;;;;20.72;54.18;97972.31;4842157;29;19920;-65
2023/05/05 15:58:11;;;;;;;;;;;;;;;20.67;53.98;97967.47;4839724;29;19971;-65
2023/05/05 16:00:37;;;;;;;;;;;;;;;20.63;54.24;97966.16;4825525;29;19952;-64
2023/05/05 16:03:02;;;;;;;;;;;;;;;20.65;54.16;97968.66;4842409;29;20007;-65
2023/05/05 16:05:27;;;;;;;;;;;;;;;20.64;54.82;97967.81;4846674;29;19920;-64
2023/05/05 16:07:52;;;;;;;;;;;;;;;20.61;55.64;97971.69;4834221;29;19929;-65
2023/05/05 16:10:19;;;;;;;;;;;;;;;20.57;55.54;97973.00;4833828;29;20334;-65
2023/05/05 16:12:44;;;;;;;;;;;;;;;20.49;53.82;97978.34;4826930;29;19963;-64
2023/05/05 16:15:09;;;;;;;;;;;;;;;20.44;52.49;97979.88;4841247;29;19956;-64
2023/05/05 16:17:34;;;;;;;;;;;;;;;20.42;50.95;97987.22;4844618;29;19966;-63
2023/05/05 16:20:00;;;;;;;;;;;;;;;20.41;50.72;97982.91;4821203;29;19920;-63
2023/05/05 16:22:25;;;;;;;;;;;;;;;20.35;49.24;97979.91;4825279;29;19932;-64
2023/05/05 16:24:50;;;;;;;;;;;;;;;20.36;49.38;97972.75;4840378;29;19920;-65
2023/05/05 16:27:16;;;;;;;;;;;;;;;20.27;50.28;97971.97;4832379;29;19969;-65
2023/05/05 16:29:41;;;;;;;;;;;;;;;20.28;50.77;97970.13;4832824;29;19955;-64
2023/05/05 16:32:06;;;;;;;;;;;;;;;20.29;50.03;97963.78;4837984;29;20033;-63
2023/05/05 16:34:32;;;;;;;;;;;;;;;20.27;50.50;97960.50;4845866;29;19921;-64
2023/05/05 16:36:57;;;;;;;;;;;;;;;20.25;50.50;97963.31;4839545;29;19927;-63
2023/05/05 16:39:22;;;;;;;;;;;;;;;20.24;50.46;97955.50;4845520;29;19932;-64
2023/05/05 16:41:47;;;;;;;;;;;;;;;20.27;50.59;97957.84;4841442;29;19981;-65
2023/05/05 16:44:13;;;;;;;;;;;;;;;20.30;50.01;97960.13;4826895;29;20382;-63
2023/05/05 16:46:38;;;;;;;;;;;;;;;20.33;49.40;97957.13;4839809;29;20466;-66
2023/05/05 16:49:04;;;;;;;;;;;;;;;20.34;48.83;97967.63;4837135;29;19927;-67
2023/05/05 16:51:29;;;;;;;;;;;;;;;20.27;48.74;97971.97;4841633;29;19920;-66
2023/05/05 16:53:54;;;;;;;;;;;;;;;20.22;49.35;97970.81;4839576;29;19951;-66
2023/05/05 16:56:20;;;;;;;;;;;;;;;20.12;51.29;97974.50;4837606;29;19917;-66
2023/05/05 16:58:45;;;;;;;;;;;;;;;20.10;52.12;97979.19;4833259;29;19991;-66
2023/05/05 17:01:10;;;;;;;;;;;;;;;20.03;52.88;97975.53;4842782;29;20290;-65
2023/05/05 17:03:36;;;;;;;;;;;;;;;19.97;52.74;97976.22;4825660;29;20365;-65
2023/05/05 17:06:02;;;;;;;;;;;;;;;19.91;52.90;97971.56;4835508;29;19916;-66
2023/05/05 17:08:27;;;;;;;;;;;;;;;19.90;53.09;97964.59;4841209;29;20421;-66
2023/05/05 17:10:52;;;;;;;;;;;;;;;19.86;54.09;97968.59;4821652;29;20007;-66
2023/05/05 17:13:18;;;;;;;;;;;;;;;19.84;53.83;97954.63;4829254;29;20023;-65
2023/05/05 17:15:43;;;;;;;;;;;;;;;19.80;54.08;97945.31;4841048;29;19999;-66
2023/05/05 17:18:08;;;;;;;;;;;;;;;19.77;54.54;97935.84;4841152;29;20028;-62
2023/05/05 17:20:33;;;;;;;;;;;;;;;19.77;54.77;97940.34;4836621;29;19925;-64
2023/05/05 17:22:58;;;;;;;;;;;;;;;19.74;55.19;97935.34;4815650;29;20402;-64
2023/05/05 17:25:24;;;;;;;;;;;;;;;19.68;56.56;97937.69;4844497;29;20614;-64
2023/05/05 17:27:50;;;;;;;;;;;;;;;19.66;55.49;97937.03;4841220;29;20003;-64
2023/05/05 17:30:15;;;;;;;;;;;;;;;19.65;58.26;97942.53;4837413;29;19928;-63
2023/05/05 17:32:40;;;;;;;;;;;;;;;19.59;59.78;97941.34;4827122;29;19988;-64
2023/05/05 17:35:06;;;;;;;;;;;;;;;19.52;60.59;97934.19;4823630;29;19924;-63
2023/05/05 17:37:32;;;;;;;;;;;;;;;19.43;61.34;97936.84;4840525;29;19927;-64
2023/05/05 17:39:57;;;;;;;;;;;;;;;19.36;61.76;97935.03;4842978;29;19948;-64
2023/05/05 17:42:25;;;;;;;;;;;;;;;19.29;62.27;97945.50;4841090;29;20547;-64
2023/05/05 17:44:50;;;;;;;;;;;;;;;19.19;63.23;97945.66;4817675;29;20280;-64
2023/05/05 17:47:20;;;;;;;;;;;;;;;19.20;62.69;97935.84;4834662;29;19932;-64
2023/05/05 17:49:46;;;;;;;;;;;;;;;19.16;63.11;97927.38;4841912;29;19925;-63
2023/05/05 17:52:11;;;;;;;;;;;;;;;19.12;64.15;97923.41;4830574;29;19927;-63
2023/05/05 17:54:36;;;;;;;;;;;;;;;19.05;65.27;97917.09;4834599;29;19970;-64
2023/05/05 17:57:01;;;;;;;;;;;;;;;18.96;64.53;97916.28;4831561;29;19924;-64
2023/05/05 19:17:03;;;;;;;;;;;;;;;17.13;74.21;98050.03;5524207;23;20312;-63
2023/05/05 19:19:28;;;;;;;;;;;;;;;17.18;73.08;98065.50;4877931;29;19928;-64
2023/05/05 19:21:54;;;;;;;;;;;;;;;17.05;72.21;98081.75;4877310;29;19979;-64
2023/05/05 19:24:19;;;;;;;;;;;;;;;16.95;70.70;98100.38;4860907;29;19916;-64
2023/05/05 19:26:44;;;;;;;;;;;;;;;16.74;72.38;98108.56;4872999;29;19923;-65
2023/05/05 19:29:09;;;;;;;;;;;;;;;16.64;73.72;98105.09;4856896;29;19975;-64
2023/05/05 19:31:35;;;;;;;;;;;;;;;16.50;74.79;98103.75;4842663;29;19976;-65
2023/05/05 19:34:00;;;;;;;;;;;;;;;16.31;75.62;98107.31;4859474;29;19976;-64
2023/05/05 19:36:26;;;;;;;;;;;;;;;16.27;77.02;98108.53;4859413;29;19920;-64
2023/05/05 19:38:51;;;;;;;;;;;;;;;16.02;78.42;98107.34;4824592;29;20009;-64
2023/05/05 19:41:17;;;;;;;;;;;;;;;15.78;80.30;98112.25;4830412;29;20346;-63
2023/05/05 19:43:45;;;;;;;;;;;;;;;15.74;81.47;98124.09;4849322;29;19925;-63
2023/05/05 19:46:10;;;;;;;;;;;;;;;15.59;82.84;98113.91;4850076;29;19955;-64
2023/05/05 19:48:35;;;;;;;;;;;;;;;15.63;83.28;98117.09;4848334;29;19924;-64
2023/05/05 19:51:01;;;;;;;;;;;;;;;15.50;83.59;98117.38;4848679;29;19928;-64
2023/05/05 19:53:26;;;;;;;;;;;;;;;15.43;84.62;98121.53;4855070;29;19924;-64
2023/05/05 19:55:51;;;;;;;;;;;;;;;15.46;84.32;98131.00;4838856;29;19920;-64
2023/05/05 19:58:17;;;;;;;;;;;;;;;15.48;84.04;98129.88;4857728;29;19917;-64
2023/05/05 20:00:42;;;;;;;;;;;;;;;15.39;83.85;98131.56;4856437;29;19929;-64
2023/05/05 20:03:07;;;;;;;;;;;;;;;15.37;84.56;98133.47;4854962;29;19921;-64
2023/05/05 20:05:33;;;;;;;;;;;;;;;15.29;84.76;98130.69;4851215;29;19920;-64
2023/05/05 20:07:58;;;;;;;;;;;;;;;15.26;84.86;98130.97;4862049;29;19916;-63
2023/05/05 20:10:25;;;;;;;;;;;;;;;15.28;84.57;98129.03;4856366;29;20015;-64
2023/05/05 20:12:50;;;;;;;;;;;;;;;15.28;85.43;98126.41;4834068;29;19928;-64
2023/05/05 20:15:17;;;;;;;;;;;;;;;15.18;86.07;98122.91;4860240;29;20302;-63
2023/05/05 20:17:45;;;;;;;;;;;;;;;15.16;86.18;98119.53;4859502;29;20408;-64
2023/05/05 20:20:10;;;;;;;;;;;;;;;15.15;85.69;98116.06;4839869;29;19921;-64
2023/05/05 20:22:36;;;;;;;;;;;;;;;15.00;85.54;98111.28;4834589;29;19931;-64
2023/05/05 20:25:01;;;;;;;;;;;;;;;15.05;84.41;98119.66;4854037;29;19920;-65
2023/05/05 20:27:26;;;;;;;;;;;;;;;14.98;84.91;98115.91;4856709;29;19917;-64
2023/05/05 20:29:51;;;;;;;;;;;;;;;14.91;85.38;98127.00;4851548;29;19924;-64
2023/05/05 20:32:19;;;;;;;;;;;;;;;14.96;85.55;98119.50;4850621;29;19924;-64
2023/05/05 20:34:44;;;;;;;;;;;;;;;14.99;85.25;98118.38;4846652;29;19948;-64
2023/05/05 20:37:10;;;;;;;;;;;;;;;14.98;85.57;98116.72;4846585;29;20083;-64
2023/05/05 20:39:35;;;;;;;;;;;;;;;14.95;86.82;98103.78;4855603;29;19956;-64
2023/05/05 20:42:01;;;;;;;;;;;;;;;14.90;87.08;98100.69;4851395;29;20343;-63
2023/05/05 20:44:26;;;;;;;;;;;;;;;14.94;86.35;98099.50;4856270;29;19920;-64
2023/05/05 20:46:51;;;;;;;;;;;;;;;14.94;86.87;98105.59;4854444;29;19976;-64
2023/05/05 20:49:17;;;;;;;;;;;;;;;14.94;86.49;98095.03;4851610;29;19920;-64
2023/05/05 20:51:42;;;;;;;;;;;;;;;14.98;86.63;98103.53;4859574;29;19924;-64
2023/05/05 20:54:08;;;;;;;;;;;;;;;14.99;87.42;98104.34;4856078;29;19920;-64
2023/05/05 20:56:34;;;;;;;;;;;;;;;15.01;87.20;98107.72;4858951;29;19927;-64
2023/05/05 20:58:59;;;;;;;;;;;;;;;14.98;87.62;98105.34;4841244;29;20014;-64
2023/05/05 21:01:25;;;;;;;;;;;;;;;14.93;86.92;98114.50;4855690;29;20018;-64
2023/05/05 21:03:50;;;;;;;;;;;;;;;14.93;87.42;98113.63;4834648;29;19920;-65
